Time;durP1;ratioP1;P1;durP2;ratioP2;P2;SDS_P1;SDS_P2;PMS_P1;PMS_P2;Temp;Humidity;BMP_temperature;BMP_pressure;BME280_temperature;BME280_humidity;BME280_pressure;Samples;Min_cycle;Max_cycle;Signal;HPM_P1;HPM_P2
2023/07/13 00:00:38;;;;;;;56.63;2.00;;;;;;;;;;4994316;28;20447;-69
2023/07/13 00:03:06;;;;;;;58.07;2.10;;;;;;;;;;4994412;28;20455;-69
2023/07/13 00:05:33;;;;;;;56.77;2.30;;;;;;;;;;4994127;28;20570;-70
2023/07/13 00:08:00;;;;;;;56.53;2.10;;;;;;;;;;4994570;28;20447;-70
2023/07/13 00:10:27;;;;;;;56.90;2.17;;;;;;;;;;4994247;28;20455;-70
2023/07/13 00:12:55;;;;;;;56.87;2.33;;;;;;;;;;4994365;28;20446;-70
2023/07/13 00:15:24;;;;;;;56.37;2.10;;;;;;;;;;4994171;28;20479;-70
2023/07/13 00:17:54;;;;;;;57.00;2.20;;;;;;;;;;4994179;28;20455;-70
2023/07/13 00:20:21;;;;;;;56.27;2.10;;;;;;;;;;4993766;28;20762;-70
2023/07/13 00:22:48;;;;;;;56.70;1.90;;;;;;;;;;4994085;28;20866;-70
2023/07/13 00:25:16;;;;;;;56.47;2.10;;;;;;;;;;4993877;28;20593;-70
2023/07/13 00:27:44;;;;;;;56.53;2.00;;;;;;;;;;4994241;28;20447;-70
2023/07/13 00:30:11;;;;;;;56.80;2.00;;;;;;;;;;4992853;28;20819;-70
2023/07/13 00:32:39;;;;;;;56.27;2.10;;;;;;;;;;4993715;28;20473;-69
2023/07/13 00:35:08;;;;;;;56.47;2.00;;;;;;;;;;4993828;28;20452;-69
2023/07/13 00:37:36;;;;;;;56.87;2.50;;;;;;;;;;4993893;28;20454;-70
2023/07/13 00:40:04;;;;;;;56.47;2.00;;;;;;;;;;4993687;28;20459;-70
2023/07/13 00:42:31;;;;;;;56.67;2.10;;;;;;;;;;4993519;28;20477;-70
2023/07/13 00:45:06;;;;;;;56.93;2.10;;;;;;;;;;4993509;28;20490;-70
2023/07/13 00:47:33;;;;;;;56.77;2.10;;;;;;;;;;4993953;28;20478;-70
2023/07/13 00:50:00;;;;;;;56.47;2.10;;;;;;;;;;4993675;28;20454;-69
2023/07/13 00:52:29;;;;;;;56.47;2.03;;;;;;;;;;4993411;28;20475;-70
2023/07/13 00:54:57;;;;;;;56.67;2.17;;;;;;;;;;4993606;28;20505;-70
2023/07/13 00:57:25;;;;;;;56.67;2.17;;;;;;;;;;4993394;28;20451;-70
2023/07/13 00:59:54;;;;;;;56.67;2.20;;;;;;;;;;4993259;28;20454;-70
2023/07/13 01:02:22;;;;;;;56.80;2.40;;;;;;;;;;4993426;28;20538;-70
2023/07/13 01:04:49;;;;;;;57.10;2.30;;;;;;;;;;4993394;28;20529;-70
2023/07/13 01:07:19;;;;;;;56.90;2.10;;;;;;;;;;4992498;28;20463;-70
2023/07/13 01:09:48;;;;;;;56.87;2.20;;;;;;;;;;4991714;28;20509;-70
2023/07/13 01:12:15;;;;;;;57.00;2.27;;;;;;;;;;4993008;28;20506;-70
2023/07/13 01:14:42;;;;;;;56.47;2.00;;;;;;;;;;4993041;28;20455;-70
2023/07/13 01:17:10;;;;;;;57.00;2.20;;;;;;;;;;4986057;28;20546;-70
2023/07/13 01:19:39;;;;;;;57.00;2.10;;;;;;;;;;4992829;28;20826;-71
2023/07/13 01:22:08;;;;;;;56.90;2.00;;;;;;;;;;4992360;28;20471;-70
2023/07/13 01:24:36;;;;;;;56.47;2.27;;;;;;;;;;4992804;28;20502;-70
2023/07/13 01:27:03;;;;;;;59.00;2.47;;;;;;;;;;4992653;28;20835;-70
2023/07/13 01:29:30;;;;;;;57.47;2.50;;;;;;;;;;4992672;28;20447;-70
2023/07/13 01:31:57;;;;;;;56.73;1.90;;;;;;;;;;4992359;28;20478;-70
2023/07/13 01:34:24;;;;;;;57.60;2.20;;;;;;;;;;4992660;28;20836;-70
2023/07/13 01:36:53;;;;;;;56.97;2.67;;;;;;;;;;4992609;28;20449;-70
2023/07/13 01:39:22;;;;;;;57.50;2.40;;;;;;;;;;4992862;28;20455;-70
2023/07/13 01:41:49;;;;;;;56.67;1.80;;;;;;;;;;4992214;28;20486;-70
2023/07/13 01:44:16;;;;;;;57.00;1.93;;;;;;;;;;4992187;28;20470;-70
2023/07/13 01:46:43;;;;;;;56.67;2.00;;;;;;;;;;4992558;28;20459;-71
2023/07/13 01:49:10;;;;;;;59.20;2.40;;;;;;;;;;4992321;28;20446;-70
2023/07/13 01:51:37;;;;;;;56.93;2.57;;;;;;;;;;4992045;28;21029;-70
2023/07/13 01:54:04;;;;;;;56.77;2.00;;;;;;;;;;4992505;28;20451;-70
2023/07/13 01:56:33;;;;;;;56.87;2.20;;;;;;;;;;4992222;28;21034;-69
2023/07/13 01:59:00;;;;;;;56.87;2.00;;;;;;;;;;4992417;28;20462;-70
2023/07/13 02:01:27;;;;;;;56.80;2.00;;;;;;;;;;4991533;28;20835;-69
2023/07/13 02:03:54;;;;;;;57.07;2.10;;;;;;;;;;4992147;28;20447;-69
2023/07/13 02:06:21;;;;;;;57.00;2.10;;;;;;;;;;4992235;28;20483;-69
2023/07/13 02:08:48;;;;;;;56.73;1.90;;;;;;;;;;4992105;28;20997;-69
2023/07/13 02:11:15;;;;;;;56.47;2.00;;;;;;;;;;4991769;28;20478;-69
2023/07/13 02:13:44;;;;;;;56.70;2.10;;;;;;;;;;4992267;28;20819;-69
2023/07/13 02:16:11;;;;;;;57.03;2.20;;;;;;;;;;4991674;28;20443;-69
2023/07/13 02:18:38;;;;;;;56.83;2.00;;;;;;;;;;4992216;28;21321;-69
2023/07/13 02:21:05;;;;;;;57.07;2.17;;;;;;;;;;4991647;28;20472;-69
2023/07/13 02:23:32;;;;;;;56.93;2.10;;;;;;;;;;4991989;28;20455;-70
2023/07/13 02:26:00;;;;;;;56.93;2.17;;;;;;;;;;4991890;28;20486;-70
2023/07/13 02:28:27;;;;;;;56.97;2.33;;;;;;;;;;4991887;28;20453;-69
2023/07/13 02:30:56;;;;;;;56.83;2.00;;;;;;;;;;4991305;28;20475;-70
2023/07/13 02:33:23;;;;;;;57.30;2.50;;;;;;;;;;4991889;28;20542;-70
2023/07/13 02:35:50;;;;;;;56.83;2.30;;;;;;;;;;4991929;28;20447;-69
2023/07/13 02:38:17;;;;;;;57.07;2.30;;;;;;;;;;4992001;28;20443;-70
2023/07/13 02:40:44;;;;;;;56.90;2.20;;;;;;;;;;4991440;28;20458;-69
2023/07/13 02:43:11;;;;;;;56.93;2.23;;;;;;;;;;4991678;28;20477;-69
2023/07/13 02:45:39;;;;;;;56.80;2.17;;;;;;;;;;4991678;28;20475;-69
2023/07/13 02:48:07;;;;;;;56.83;2.20;;;;;;;;;;4991893;28;20482;-69
2023/07/13 02:50:34;;;;;;;57.60;3.00;;;;;;;;;;4991474;28;20460;-70
2023/07/13 02:53:02;;;;;;;56.97;2.40;;;;;;;;;;4993520;28;20537;-70
2023/07/13 02:55:29;;;;;;;56.77;2.23;;;;;;;;;;4995763;28;20455;-70
2023/07/13 02:57:56;;;;;;;57.10;2.70;;;;;;;;;;4995482;28;20457;-70
2023/07/13 03:00:24;;;;;;;57.10;2.43;;;;;;;;;;4995142;28;21069;-70
2023/07/13 03:02:52;;;;;;;57.07;2.60;;;;;;;;;;4995354;28;20462;-70
2023/07/13 03:05:21;;;;;;;56.77;2.40;;;;;;;;;;4995151;28;20486;-69
2023/07/13 03:07:48;;;;;;;56.73;2.20;;;;;;;;;;4995521;28;20453;-69
2023/07/13 03:10:16;;;;;;;56.97;2.17;;;;;;;;;;4994236;28;20459;-69
2023/07/13 03:12:43;;;;;;;56.73;2.20;;;;;;;;;;4995182;28;20486;-69
2023/07/13 03:15:10;;;;;;;56.90;2.20;;;;;;;;;;4994916;28;20455;-70
2023/07/13 03:17:37;;;;;;;56.97;2.20;;;;;;;;;;4995001;28;20451;-69
2023/07/13 03:20:04;;;;;;;56.87;2.50;;;;;;;;;;4995132;28;20462;-69
2023/07/13 03:22:33;;;;;;;57.10;2.90;;;;;;;;;;4994837;28;20474;-69
2023/07/13 03:25:00;;;;;;;57.07;2.30;;;;;;;;;;4995033;28;20461;-69
2023/07/13 03:27:27;;;;;;;56.93;2.20;;;;;;;;;;4994854;28;20457;-69
2023/07/13 03:29:54;;;;;;;56.97;2.13;;;;;;;;;;4995095;28;20458;-70
2023/07/13 03:32:21;;;;;;;56.83;2.10;;;;;;;;;;4994741;28;20474;-70
2023/07/13 03:34:48;;;;;;;56.67;2.10;;;;;;;;;;4994760;28;20451;-69
2023/07/13 03:37:15;;;;;;;56.93;2.10;;;;;;;;;;4994966;28;20838;-69
2023/07/13 03:39:44;;;;;;;57.10;2.30;;;;;;;;;;4994869;28;20446;-70
2023/07/13 03:42:11;;;;;;;57.00;2.50;;;;;;;;;;4994435;28;20986;-70
2023/07/13 03:44:38;;;;;;;56.77;2.30;;;;;;;;;;4994565;28;20954;-70
2023/07/13 03:47:08;;;;;;;56.97;2.40;;;;;;;;;;4994623;28;20494;-69
2023/07/13 03:49:35;;;;;;;56.77;2.20;;;;;;;;;;4994978;28;20465;-70
2023/07/13 03:52:02;;;;;;;56.90;2.17;;;;;;;;;;4994460;28;20477;-69
2023/07/13 03:54:29;;;;;;;56.83;2.20;;;;;;;;;;4994888;28;20958;-69
2023/07/13 03:56:58;;;;;;;56.83;2.30;;;;;;;;;;4994572;28;20447;-70
2023/07/13 03:59:25;;;;;;;56.87;2.20;;;;;;;;;;4994526;28;20833;-70
2023/07/13 04:01:52;;;;;;;57.20;2.30;;;;;;;;;;4993592;28;20474;-69
2023/07/13 04:04:20;;;;;;;56.77;2.40;;;;;;;;;;4993951;28;20462;-69
2023/07/13 04:06:47;;;;;;;56.67;2.30;;;;;;;;;;4993988;28;20846;-70
2023/07/13 04:09:15;;;;;;;56.63;1.97;;;;;;;;;;4994099;28;20450;-69
2023/07/13 04:11:42;;;;;;;56.73;2.30;;;;;;;;;;4993875;28;20470;-69
2023/07/13 04:14:10;;;;;;;56.67;2.10;;;;;;;;;;4994337;28;20451;-69
2023/07/13 04:16:37;;;;;;;56.67;2.00;;;;;;;;;;4994056;28;20811;-69
2023/07/13 04:19:05;;;;;;;57.00;2.63;;;;;;;;;;4994283;28;20939;-70
2023/07/13 04:21:33;;;;;;;56.80;2.07;;;;;;;;;;4993330;28;20482;-70
2023/07/13 04:24:00;;;;;;;56.70;2.13;;;;;;;;;;4992919;28;20459;-69
2023/07/13 04:26:27;;;;;;;56.57;2.10;;;;;;;;;;4993745;28;20491;-69
2023/07/13 04:28:54;;;;;;;56.77;2.17;;;;;;;;;;4993762;28;20455;-69
2023/07/13 04:31:23;;;;;;;56.70;2.10;;;;;;;;;;4992771;28;20471;-70
2023/07/13 04:33:50;;;;;;;56.57;2.00;;;;;;;;;;4993757;28;20451;-70
2023/07/13 04:36:18;;;;;;;57.60;2.33;;;;;;;;;;4993883;28;20455;-70
2023/07/13 04:38:45;;;;;;;56.57;2.37;;;;;;;;;;4994032;28;20454;-70
2023/07/13 04:41:12;;;;;;;56.70;2.30;;;;;;;;;;4993506;28;20467;-69
2023/07/13 04:43:39;;;;;;;56.97;2.73;;;;;;;;;;4993539;28;20493;-70
2023/07/13 04:46:07;;;;;;;57.10;2.50;;;;;;;;;;4992904;28;20491;-70
2023/07/13 04:48:36;;;;;;;56.67;2.20;;;;;;;;;;4993294;28;20462;-69
2023/07/13 04:51:03;;;;;;;56.70;2.07;;;;;;;;;;4993323;28;20471;-69
2023/07/13 04:53:32;;;;;;;56.67;2.07;;;;;;;;;;4993481;28;20458;-70
2023/07/13 04:55:59;;;;;;;56.47;2.40;;;;;;;;;;4993333;28;20454;-70
2023/07/13 04:58:27;;;;;;;56.67;2.03;;;;;;;;;;4993459;28;20458;-70
2023/07/13 05:00:54;;;;;;;56.70;2.17;;;;;;;;;;4992514;28;20470;-69
2023/07/13 05:03:21;;;;;;;58.50;3.37;;;;;;;;;;4993385;28;20466;-70
2023/07/13 05:05:57;;;;;;;56.47;2.00;;;;;;;;;;4993422;28;21002;-69
2023/07/13 05:08:25;;;;;;;56.33;2.20;;;;;;;;;;4992805;28;20470;-70
2023/07/13 05:10:52;;;;;;;56.80;2.00;;;;;;;;;;4992545;28;20471;-69
2023/07/13 05:13:20;;;;;;;56.67;2.47;;;;;;;;;;4992859;28;20451;-70
2023/07/13 05:15:47;;;;;;;56.77;2.30;;;;;;;;;;4991367;28;20465;-70
2023/07/13 05:18:14;;;;;;;56.47;2.00;;;;;;;;;;4992886;28;20706;-70
2023/07/13 05:20:41;;;;;;;56.67;2.17;;;;;;;;;;4992831;28;20823;-70
2023/07/13 05:23:09;;;;;;;56.40;2.10;;;;;;;;;;4992964;28;20461;-70
2023/07/13 05:25:36;;;;;;;56.60;2.10;;;;;;;;;;4992647;28;20466;-70
2023/07/13 05:28:03;;;;;;;56.60;2.00;;;;;;;;;;4992813;28;20885;-70
2023/07/13 05:30:31;;;;;;;57.37;2.13;;;;;;;;;;4992827;28;20451;-69
2023/07/13 05:32:58;;;;;;;56.77;2.40;;;;;;;;;;4992711;28;20459;-70
2023/07/13 05:35:25;;;;;;;57.10;2.10;;;;;;;;;;4992639;28;20966;-70
2023/07/13 05:37:52;;;;;;;56.33;2.00;;;;;;;;;;4992742;28;20482;-70
2023/07/13 05:40:20;;;;;;;56.77;2.50;;;;;;;;;;4992293;28;20457;-70
2023/07/13 05:42:47;;;;;;;56.63;2.07;;;;;;;;;;4992524;28;20479;-70
2023/07/13 05:45:15;;;;;;;56.57;2.10;;;;;;;;;;4992533;28;20458;-70
2023/07/13 05:47:42;;;;;;;57.00;2.43;;;;;;;;;;4992517;28;20585;-70
2023/07/13 05:50:09;;;;;;;56.57;2.20;;;;;;;;;;4992342;28;20972;-70
2023/07/13 05:52:37;;;;;;;56.93;2.13;;;;;;;;;;4992357;28;20497;-70
2023/07/13 05:55:04;;;;;;;56.63;2.10;;;;;;;;;;4992831;28;20935;-70
2023/07/13 05:57:33;;;;;;;61.27;5.13;;;;;;;;;;4992826;28;20450;-69
2023/07/13 06:00:00;;;;;;;56.87;2.20;;;;;;;;;;4992615;28;20447;-70
2023/07/13 06:02:27;;;;;;;56.67;2.40;;;;;;;;;;4992159;28;20471;-70
2023/07/13 06:04:54;;;;;;;56.90;2.27;;;;;;;;;;4992380;28;20457;-70
2023/07/13 06:07:21;;;;;;;56.97;2.07;;;;;;;;;;4992092;28;20482;-71
2023/07/13 06:09:48;;;;;;;57.23;2.93;;;;;;;;;;4992353;28;20467;-71
2023/07/13 06:12:15;;;;;;;56.43;2.00;;;;;;;;;;4992029;28;20471;-72
2023/07/13 06:14:44;;;;;;;57.37;2.27;;;;;;;;;;4992429;28;20447;-72
2023/07/13 06:17:11;;;;;;;56.67;2.17;;;;;;;;;;4992230;28;20447;-72
2023/07/13 06:19:38;;;;;;;56.77;1.90;;;;;;;;;;4992728;28;20451;-70
2023/07/13 06:22:05;;;;;;;56.57;2.00;;;;;;;;;;4991553;28;20834;-71
2023/07/13 06:24:32;;;;;;;56.60;2.00;;;;;;;;;;4991977;28;20951;-71
2023/07/13 06:27:00;;;;;;;56.67;1.87;;;;;;;;;;4991410;28;20487;-72
2023/07/13 06:29:27;;;;;;;56.80;1.80;;;;;;;;;;4992195;28;20454;-72
2023/07/13 06:31:55;;;;;;;56.57;1.70;;;;;;;;;;4991719;28;20854;-72
2023/07/13 06:34:22;;;;;;;57.77;2.30;;;;;;;;;;4991942;28;20451;-72
2023/07/13 06:36:49;;;;;;;57.60;2.23;;;;;;;;;;4992776;28;20946;-73
2023/07/13 06:39:16;;;;;;;57.27;2.17;;;;;;;;;;4992599;28;20455;-71
2023/07/13 06:41:43;;;;;;;56.10;1.93;;;;;;;;;;4992104;28;20474;-72
2023/07/13 06:44:10;;;;;;;56.80;2.50;;;;;;;;;;4992382;28;20459;-71
2023/07/13 06:46:38;;;;;;;56.47;2.10;;;;;;;;;;4991962;28;20483;-72
2023/07/13 06:49:06;;;;;;;56.37;2.13;;;;;;;;;;4992081;28;20454;-71
2023/07/13 06:51:33;;;;;;;56.37;1.80;;;;;;;;;;4991384;28;20475;-72
2023/07/13 06:54:00;;;;;;;56.37;1.63;;;;;;;;;;4992004;28;20817;-72
2023/07/13 06:56:27;;;;;;;56.43;1.80;;;;;;;;;;4991675;28;20807;-72
2023/07/13 06:58:54;;;;;;;57.83;2.97;;;;;;;;;;4991778;28;20454;-72
2023/07/13 07:01:21;;;;;;;56.37;1.87;;;;;;;;;;4991744;28;20493;-71
2023/07/13 07:03:48;;;;;;;56.50;2.00;;;;;;;;;;4991637;28;20458;-73
2023/07/13 07:06:18;;;;;;;56.60;1.90;;;;;;;;;;4991333;28;21021;-73
2023/07/13 07:08:45;;;;;;;56.33;2.00;;;;;;;;;;4990914;28;20959;-73
2023/07/13 07:11:13;;;;;;;56.47;1.70;;;;;;;;;;4991076;28;21002;-73
2023/07/13 07:13:40;;;;;;;56.37;1.87;;;;;;;;;;4991522;28;20459;-73
2023/07/13 07:16:08;;;;;;;56.60;2.20;;;;;;;;;;4991413;28;20451;-72
2023/07/13 07:18:35;;;;;;;56.50;1.80;;;;;;;;;;4991279;28;20561;-72
2023/07/13 07:21:02;;;;;;;56.60;2.00;;;;;;;;;;4991757;28;20489;-72
2023/07/13 07:23:31;;;;;;;56.67;1.80;;;;;;;;;;4992042;28;20462;-73
2023/07/13 07:25:58;;;;;;;56.90;2.83;;;;;;;;;;4992367;28;20781;-72
2023/07/13 07:28:28;;;;;;;56.53;2.00;;;;;;;;;;4991988;28;20493;-72
2023/07/13 07:30:55;;;;;;;56.37;1.80;;;;;;;;;;4991311;28;20574;-73
2023/07/13 07:33:22;;;;;;;57.00;2.40;;;;;;;;;;4991450;28;20981;-72
2023/07/13 07:35:49;;;;;;;56.70;1.90;;;;;;;;;;4991701;28;20458;-72
2023/07/13 07:38:17;;;;;;;56.40;1.63;;;;;;;;;;4991904;28;20970;-72
2023/07/13 07:40:45;;;;;;;56.37;2.03;;;;;;;;;;4994750;28;20455;-72
2023/07/13 07:43:13;;;;;;;55.97;2.00;;;;;;;;;;4994854;28;20462;-73
2023/07/13 07:45:40;;;;;;;56.37;2.10;;;;;;;;;;4995224;28;20838;-73
2023/07/13 07:48:09;;;;;;;56.47;2.00;;;;;;;;;;4995600;28;20486;-72
2023/07/13 07:50:38;;;;;;;56.30;2.10;;;;;;;;;;4994706;28;20462;-72
2023/07/13 07:53:07;;;;;;;57.50;3.37;;;;;;;;;;4995656;28;20462;-72
2023/07/13 07:55:34;;;;;;;56.23;1.80;;;;;;;;;;4995538;28;20865;-72
2023/07/13 07:58:03;;;;;;;56.33;1.80;;;;;;;;;;4995175;28;20498;-72
2023/07/13 08:00:31;;;;;;;56.23;1.90;;;;;;;;;;4995103;28;20454;-73
2023/07/13 08:02:59;;;;;;;56.17;1.80;;;;;;;;;;4994849;28;20451;-72
2023/07/13 08:05:26;;;;;;;56.07;1.80;;;;;;;;;;4994768;28;20466;-72
2023/07/13 08:07:53;;;;;;;56.27;2.10;;;;;;;;;;4994627;28;21003;-72
2023/07/13 08:10:20;;;;;;;56.37;2.00;;;;;;;;;;4994266;28;20455;-71
2023/07/13 08:12:47;;;;;;;56.27;2.13;;;;;;;;;;4994820;28;20482;-72
2023/07/13 08:15:17;;;;;;;56.37;2.00;;;;;;;;;;4994850;28;20966;-72
2023/07/13 08:17:44;;;;;;;56.37;2.00;;;;;;;;;;4994893;28;20451;-72
2023/07/13 08:20:12;;;;;;;56.40;2.03;;;;;;;;;;4994546;28;20458;-71
2023/07/13 08:22:39;;;;;;;56.70;2.27;;;;;;;;;;4994953;28;20475;-72
2023/07/13 08:25:06;;;;;;;56.40;2.10;;;;;;;;;;4994492;28;20451;-72
2023/07/13 08:27:34;;;;;;;56.33;1.87;;;;;;;;;;4994727;28;20498;-72
2023/07/13 08:30:01;;;;;;;56.60;2.00;;;;;;;;;;4994939;28;20466;-72
2023/07/13 08:32:30;;;;;;;57.50;3.17;;;;;;;;;;4994945;28;20562;-72
2023/07/13 08:34:57;;;;;;;56.40;2.00;;;;;;;;;;4995058;28;20461;-72
2023/07/13 08:37:24;;;;;;;56.00;1.80;;;;;;;;;;4994400;28;20450;-72
2023/07/13 08:39:51;;;;;;;56.30;1.80;;;;;;;;;;4993825;28;20457;-72
2023/07/13 08:42:24;;;;;;;57.00;2.57;;;;;;;;;;4993821;28;20485;-72
2023/07/13 08:44:55;;;;;;;56.37;2.33;;;;;;;;;;4993834;28;20473;-72
2023/07/13 08:47:24;;;;;;;60.70;2.23;;;;;;;;;;4993695;28;20493;-71
2023/07/13 08:49:52;;;;;;;56.13;1.70;;;;;;;;;;4992898;28;20465;-71
2023/07/13 08:52:28;;;;;;;56.50;1.80;;;;;;;;;;4993013;28;20521;-71
2023/07/13 08:54:56;;;;;;;56.37;1.77;;;;;;;;;;4993697;28;20458;-71
2023/07/13 08:57:28;;;;;;;56.30;1.90;;;;;;;;;;4993487;28;20823;-71
2023/07/13 08:59:55;;;;;;;56.67;2.30;;;;;;;;;;4993484;28;20451;-71
2023/07/13 09:02:27;;;;;;;55.97;1.83;;;;;;;;;;4992838;28;21022;-71
2023/07/13 09:04:57;;;;;;;56.60;2.00;;;;;;;;;;4993438;28;20459;-71
2023/07/13 09:07:30;;;;;;;56.70;2.20;;;;;;;;;;4993506;28;20490;-71
2023/07/13 09:10:04;;;;;;;56.27;1.87;;;;;;;;;;4992620;28;20467;-71
2023/07/13 09:12:35;;;;;;;56.03;1.90;;;;;;;;;;4993357;28;20493;-71
2023/07/13 09:15:04;;;;;;;56.07;1.83;;;;;;;;;;4992835;28;20463;-71
2023/07/13 09:17:35;;;;;;;56.33;1.80;;;;;;;;;;4992866;28;20454;-70
2023/07/13 09:20:05;;;;;;;56.13;1.90;;;;;;;;;;4992787;28;20459;-71
2023/07/13 09:22:33;;;;;;;56.13;1.80;;;;;;;;;;4992880;28;20474;-71
2023/07/13 09:25:03;;;;;;;56.30;1.83;;;;;;;;;;4992822;28;20457;-71
2023/07/13 09:27:33;;;;;;;56.03;1.90;;;;;;;;;;4992732;28;20495;-71
2023/07/13 09:30:04;;;;;;;56.60;1.77;;;;;;;;;;4992808;28;20457;-70
2023/07/13 09:32:33;;;;;;;56.47;1.97;;;;;;;;;;4992677;28;20564;-70
2023/07/13 09:35:00;;;;;;;56.27;1.87;;;;;;;;;;4992626;28;20455;-71
2023/07/13 09:37:31;;;;;;;55.70;1.80;;;;;;;;;;4992607;28;20453;-71
2023/07/13 09:39:59;;;;;;;56.33;2.10;;;;;;;;;;4992688;28;20970;-71
2023/07/13 09:42:28;;;;;;;56.20;1.90;;;;;;;;;;4992523;28;20474;-71
2023/07/13 09:44:56;;;;;;;56.30;1.87;;;;;;;;;;4992624;28;20828;-72
2023/07/13 09:47:26;;;;;;;56.20;1.90;;;;;;;;;;4992491;28;20489;-71
2023/07/13 09:49:58;;;;;;;56.57;2.00;;;;;;;;;;4992538;28;20509;-71
2023/07/13 09:52:25;;;;;;;56.40;1.80;;;;;;;;;;4991990;28;20479;-71
2023/07/13 09:54:58;;;;;;;56.33;1.70;;;;;;;;;;4992425;28;20984;-70
2023/07/13 09:57:26;;;;;;;56.03;1.80;;;;;;;;;;4992727;28;20509;-69
2023/07/13 09:59:56;;;;;;;56.30;1.60;;;;;;;;;;4992780;28;20481;-72
2023/07/13 10:02:27;;;;;;;56.37;1.83;;;;;;;;;;4991949;28;20467;-71
2023/07/13 10:04:58;;;;;;;56.90;2.30;;;;;;;;;;4992490;28;20451;-70
2023/07/13 10:07:26;;;;;;;56.13;1.80;;;;;;;;;;4992172;28;20541;-71
2023/07/13 10:09:55;;;;;;;56.10;1.70;;;;;;;;;;4992335;28;20477;-72
2023/07/13 10:12:23;;;;;;;56.27;1.80;;;;;;;;;;4992206;28;20566;-71
2023/07/13 10:14:51;;;;;;;56.10;1.70;;;;;;;;;;4992277;28;20478;-72
2023/07/13 10:17:20;;;;;;;55.77;1.50;;;;;;;;;;4992095;28;20451;-72
2023/07/13 10:19:49;;;;;;;56.13;1.70;;;;;;;;;;4992167;28;20451;-72
2023/07/13 10:22:22;;;;;;;55.70;1.67;;;;;;;;;;4992257;28;20911;-71
2023/07/13 10:24:51;;;;;;;56.23;1.70;;;;;;;;;;4992284;28;20458;-73
2023/07/13 10:27:25;;;;;;;56.30;1.87;;;;;;;;;;4992036;28;20497;-73
2023/07/13 10:29:55;;;;;;;55.90;1.70;;;;;;;;;;4992176;28;20481;-72
2023/07/13 10:32:23;;;;;;;55.97;1.60;;;;;;;;;;4992250;28;20467;-72
2023/07/13 10:34:52;;;;;;;55.90;1.70;;;;;;;;;;4992428;28;20447;-73
2023/07/13 10:37:21;;;;;;;55.90;1.60;;;;;;;;;;4992418;28;20505;-72
2023/07/13 10:39:49;;;;;;;55.83;1.60;;;;;;;;;;4992442;28;20447;-73
2023/07/13 10:42:18;;;;;;;55.80;1.63;;;;;;;;;;4991663;28;20473;-72
2023/07/13 10:44:46;;;;;;;56.60;2.63;;;;;;;;;;4991896;28;20498;-73
2023/07/13 10:47:15;;;;;;;56.27;1.70;;;;;;;;;;4991928;28;20450;-72
2023/07/13 10:49:43;;;;;;;55.77;1.70;;;;;;;;;;4992366;28;20447;-72
2023/07/13 10:52:37;;;;;;;55.70;1.50;;;;;;;;;;4992328;28;20475;-73
2023/07/13 10:55:06;;;;;;;56.00;1.70;;;;;;;;;;4991981;28;20455;-73
2023/07/13 10:57:43;;;;;;;55.53;1.40;;;;;;;;;;4992006;28;20455;-73
2023/07/13 11:00:17;;;;;;;55.90;1.70;;;;;;;;;;4991638;28;20543;-72
2023/07/13 11:02:44;;;;;;;55.87;1.60;;;;;;;;;;4991878;28;20479;-73
2023/07/13 11:05:17;;;;;;;56.10;2.10;;;;;;;;;;4991685;28;20962;-73
2023/07/13 11:07:53;;;;;;;55.90;1.70;;;;;;;;;;4991330;28;20794;-71
2023/07/13 11:10:35;;;;;;;56.00;1.60;;;;;;;;;;4990968;28;20458;-72
2023/07/13 11:13:02;;;;;;;56.07;1.60;;;;;;;;;;4991623;28;20455;-71
2023/07/13 11:15:34;;;;;;;55.97;1.70;;;;;;;;;;4995356;28;20537;-72
2023/07/13 11:18:04;;;;;;;56.13;1.83;;;;;;;;;;4995146;28;20546;-72
2023/07/13 11:20:43;;;;;;;56.20;1.73;;;;;;;;;;4995002;28;20453;-72
2023/07/13 11:23:19;;;;;;;55.73;1.47;;;;;;;;;;4987806;28;20926;-72
2023/07/13 11:25:46;;;;;;;56.00;1.80;;;;;;;;;;4994895;28;20459;-73
2023/07/13 11:28:23;;;;;;;55.67;1.63;;;;;;;;;;4995045;28;20861;-72
2023/07/13 11:31:01;;;;;;;55.47;1.60;;;;;;;;;;4994556;28;20458;-72
2023/07/13 11:33:30;;;;;;;55.50;1.77;;;;;;;;;;4995316;28;20554;-73
2023/07/13 11:36:01;;;;;;;55.50;1.60;;;;;;;;;;4995113;28;20762;-73
2023/07/13 11:38:33;;;;;;;55.50;1.80;;;;;;;;;;4995331;28;20469;-73
2023/07/13 11:41:04;;;;;;;55.17;1.57;;;;;;;;;;4994505;28;20534;-73
2023/07/13 11:43:33;;;;;;;55.30;1.77;;;;;;;;;;4995644;28;20459;-73
2023/07/13 11:46:13;;;;;;;55.30;1.90;;;;;;;;;;4995977;28;20473;-73
2023/07/13 11:48:41;;;;;;;54.97;1.70;;;;;;;;;;4995481;28;20858;-71
2023/07/13 11:51:08;;;;;;;54.90;1.70;;;;;;;;;;4994564;28;20471;-69
2023/07/13 11:53:39;;;;;;;54.87;1.60;;;;;;;;;;4996123;28;20458;-71
2023/07/13 11:56:07;;;;;;;55.10;1.70;;;;;;;;;;4995603;28;20455;-73
2023/07/13 11:58:34;;;;;;;54.97;1.67;;;;;;;;;;4995009;28;20447;-74
2023/07/13 12:01:05;;;;;;;56.53;2.23;;;;;;;;;;4994667;28;20475;-73
2023/07/13 12:03:33;;;;;;;55.10;1.60;;;;;;;;;;4994892;28;20859;-73
2023/07/13 12:06:01;;;;;;;54.77;1.47;;;;;;;;;;4993625;28;20462;-72
2023/07/13 12:08:29;;;;;;;54.87;1.40;;;;;;;;;;4993764;28;20494;-72
2023/07/13 12:11:00;;;;;;;55.00;1.90;;;;;;;;;;4994599;28;20483;-73
2023/07/13 12:13:28;;;;;;;54.90;1.60;;;;;;;;;;4993349;28;20447;-71
2023/07/13 12:15:57;;;;;;;55.00;1.80;;;;;;;;;;4994623;28;20451;-71
2023/07/13 12:18:33;;;;;;;54.77;1.70;;;;;;;;;;4994579;28;20455;-69
2023/07/13 12:21:01;;;;;;;54.90;2.00;;;;;;;;;;4994586;28;20514;-69
2023/07/13 12:23:30;;;;;;;54.77;1.80;;;;;;;;;;4994659;28;20458;-70
2023/07/13 12:25:58;;;;;;;54.70;1.50;;;;;;;;;;4993064;28;20451;-73
2023/07/13 12:28:32;;;;;;;55.00;1.90;;;;;;;;;;4994293;28;20486;-73
2023/07/13 12:31:00;;;;;;;55.30;1.60;;;;;;;;;;4993712;28;20971;-71
2023/07/13 12:33:32;;;;;;;54.63;1.77;;;;;;;;;;4994271;28;20459;-70
2023/07/13 12:36:01;;;;;;;54.63;1.80;;;;;;;;;;4994395;28;20451;-71
2023/07/13 12:38:29;;;;;;;54.83;1.60;;;;;;;;;;4994113;28;20454;-71
2023/07/13 12:40:56;;;;;;;55.10;1.60;;;;;;;;;;4993788;28;20494;-73
2023/07/13 12:43:24;;;;;;;55.50;1.80;;;;;;;;;;4993846;28;20877;-71
2023/07/13 12:45:58;;;;;;;55.47;1.60;;;;;;;;;;4994096;28;20447;-72
2023/07/13 12:48:25;;;;;;;55.47;1.53;;;;;;;;;;4994122;28;20479;-73
2023/07/13 12:50:55;;;;;;;55.00;1.70;;;;;;;;;;4993517;28;20521;-72
2023/07/13 12:53:24;;;;;;;55.30;1.40;;;;;;;;;;4993922;28;20451;-72
2023/07/13 12:55:52;;;;;;;55.40;1.80;;;;;;;;;;4993548;28;20518;-72
2023/07/13 12:58:20;;;;;;;55.30;1.60;;;;;;;;;;4993835;28;20453;-72
2023/07/13 13:00:52;;;;;;;55.20;1.57;;;;;;;;;;4993466;28;20618;-72
2023/07/13 13:03:23;;;;;;;54.93;1.43;;;;;;;;;;4993649;28;20459;-72
2023/07/13 13:05:50;;;;;;;55.17;1.40;;;;;;;;;;4993459;28;20451;-72
2023/07/13 13:08:18;;;;;;;55.07;1.53;;;;;;;;;;4993361;28;20482;-72
2023/07/13 13:10:46;;;;;;;56.70;1.60;;;;;;;;;;4993585;28;20450;-72
2023/07/13 13:13:13;;;;;;;55.03;1.87;;;;;;;;;;4993529;28;20443;-72
2023/07/13 13:15:40;;;;;;;55.20;1.60;;;;;;;;;;4993451;28;20919;-72
2023/07/13 13:18:16;;;;;;;57.77;2.33;;;;;;;;;;4993718;28;20454;-72
2023/07/13 13:20:43;;;;;;;55.00;1.90;;;;;;;;;;4993063;28;20454;-73
2023/07/13 13:23:13;;;;;;;54.87;1.50;;;;;;;;;;4993392;28;20620;-73
2023/07/13 13:25:41;;;;;;;54.87;1.50;;;;;;;;;;4993163;28;20828;-72
2023/07/13 13:28:14;;;;;;;54.83;1.70;;;;;;;;;;4993229;28;20956;-72
2023/07/13 13:30:41;;;;;;;54.83;1.40;;;;;;;;;;4993027;28;20513;-72
2023/07/13 13:33:10;;;;;;;55.00;1.60;;;;;;;;;;4993095;28;20447;-71
2023/07/13 13:35:38;;;;;;;55.00;1.60;;;;;;;;;;4992575;28;20461;-72
2023/07/13 13:38:10;;;;;;;55.30;1.90;;;;;;;;;;4992833;28;20466;-71
2023/07/13 13:40:37;;;;;;;55.00;1.50;;;;;;;;;;4992567;28;20820;-72
2023/07/13 13:43:10;;;;;;;55.20;1.47;;;;;;;;;;4992630;28;20455;-73
2023/07/13 13:45:37;;;;;;;55.20;1.50;;;;;;;;;;4992907;28;20463;-72
2023/07/13 13:48:04;;;;;;;54.97;1.50;;;;;;;;;;4992751;28;20454;-73
2023/07/13 13:50:32;;;;;;;55.10;1.67;;;;;;;;;;4992786;28;20459;-72
2023/07/13 13:52:59;;;;;;;54.97;1.60;;;;;;;;;;4993077;28;20535;-73
2023/07/13 13:55:27;;;;;;;55.90;1.80;;;;;;;;;;4993050;28;20502;-72
2023/07/13 13:57:54;;;;;;;55.00;1.60;;;;;;;;;;4992713;28;20455;-73
2023/07/13 14:00:24;;;;;;;55.20;1.60;;;;;;;;;;4992169;28;20447;-72
2023/07/13 14:02:52;;;;;;;55.20;1.80;;;;;;;;;;4992666;28;20533;-72
2023/07/13 14:05:22;;;;;;;55.17;1.77;;;;;;;;;;4992468;28;20461;-73
2023/07/13 14:07:49;;;;;;;55.40;1.80;;;;;;;;;;4992644;28;20451;-72
2023/07/13 14:10:18;;;;;;;55.07;1.50;;;;;;;;;;4991915;28;20494;-72
2023/07/13 14:12:45;;;;;;;69.27;2.40;;;;;;;;;;4992198;28;20501;-73
2023/07/13 14:15:16;;;;;;;55.47;1.70;;;;;;;;;;4992098;28;20478;-72
2023/07/13 14:17:44;;;;;;;55.60;1.93;;;;;;;;;;4992434;28;20912;-73
2023/07/13 14:20:13;;;;;;;55.27;1.60;;;;;;;;;;4992182;28;20447;-73
2023/07/13 14:22:40;;;;;;;55.27;1.50;;;;;;;;;;4992209;28;20471;-72
2023/07/13 14:25:07;;;;;;;55.80;2.33;;;;;;;;;;4992263;28;20457;-73
2023/07/13 14:27:34;;;;;;;55.27;1.90;;;;;;;;;;4992109;28;20455;-72
2023/07/13 14:30:02;;;;;;;58.13;1.80;;;;;;;;;;4992057;28;20493;-73
2023/07/13 14:32:29;;;;;;;55.20;1.70;;;;;;;;;;4991731;28;20565;-72
2023/07/13 14:34:58;;;;;;;55.40;1.90;;;;;;;;;;4991991;28;20451;-73
2023/07/13 14:37:25;;;;;;;55.10;1.47;;;;;;;;;;4991980;28;20482;-72